createdAt,value
2019-03-09T00:00:45.872Z,7.93
2019-03-09T00:03:19.299Z,9.03
2019-03-09T00:05:51.073Z,8.70
2019-03-09T00:08:23.168Z,8.70
2019-03-09T00:10:54.779Z,8.70
2019-03-09T00:13:28.107Z,8.80
2019-03-09T00:16:00.009Z,8.18
2019-03-09T00:18:31.428Z,9.30
2019-03-09T00:21:03.210Z,8.53
2019-03-09T00:23:53.687Z,9.50
2019-03-09T00:26:37.239Z,8.80
2019-03-09T00:29:18.620Z,9.70
2019-03-09T00:31:56.012Z,9.60
2019-03-09T00:34:27.098Z,10.07
2019-03-09T00:36:59.188Z,10.37
2019-03-09T00:39:29.896Z,10.72
2019-03-09T00:42:00.313Z,10.30
2019-03-09T00:44:31.031Z,10.67
2019-03-09T00:47:01.944Z,10.87
2019-03-09T00:49:32.802Z,11.67
2019-03-09T00:52:03.858Z,10.33
2019-03-09T00:54:36.748Z,11.33
2019-03-09T00:57:08.145Z,10.93
2019-03-09T00:59:39.308Z,11.10
2019-03-09T01:02:10.086Z,10.83
2019-03-09T01:04:40.953Z,10.97
2019-03-09T01:07:11.731Z,10.43
2019-03-09T01:09:42.126Z,11.00
2019-03-09T01:12:12.784Z,10.40
2019-03-09T01:14:43.292Z,10.80
2019-03-09T01:17:14.000Z,11.15
2019-03-09T01:19:45.057Z,11.17
2019-03-09T01:22:15.719Z,11.95
2019-03-09T01:24:46.485Z,12.43
2019-03-09T01:27:16.873Z,12.55
2019-03-09T01:29:47.574Z,12.10
2019-03-09T01:32:18.084Z,11.15
2019-03-09T01:34:48.650Z,11.73
2019-03-09T01:37:19.270Z,10.58
2019-03-09T01:39:49.805Z,11.93
2019-03-09T01:42:20.230Z,10.82
2019-03-09T01:44:50.653Z,11.23
2019-03-09T01:47:21.223Z,11.10
2019-03-09T01:49:51.694Z,11.23
2019-03-09T01:52:22.594Z,10.65
2019-03-09T01:54:53.044Z,10.32
2019-03-09T01:57:23.573Z,10.05
2019-03-09T01:59:54.559Z,11.30
2019-03-09T02:02:25.155Z,10.60
2019-03-09T02:04:55.741Z,10.78
2019-03-09T02:07:26.169Z,11.10
2019-03-09T02:09:56.567Z,11.83
2019-03-09T02:12:28.781Z,11.67
2019-03-09T02:15:00.344Z,12.43
2019-03-09T02:17:30.888Z,12.40
2019-03-09T02:20:01.765Z,12.17
2019-03-09T02:22:32.469Z,12.73
2019-03-09T02:25:02.934Z,12.82
2019-03-09T02:27:33.781Z,14.00
2019-03-09T02:30:04.506Z,13.93
2019-03-09T02:32:36.684Z,14.47
2019-03-09T02:35:09.612Z,14.18
2019-03-09T02:37:40.343Z,13.97
2019-03-09T02:40:13.718Z,14.45
2019-03-09T02:42:44.657Z,14.30
2019-03-09T02:45:16.543Z,14.40
2019-03-09T02:47:47.035Z,15.60
2019-03-09T02:50:17.512Z,15.07
2019-03-09T02:52:48.176Z,15.00
2019-03-09T02:55:18.608Z,15.63
2019-03-09T02:57:49.721Z,14.50
2019-03-09T03:00:21.276Z,15.18
2019-03-09T03:03:01.325Z,15.77
2019-03-09T03:05:31.756Z,16.50
2019-03-09T03:08:02.371Z,14.20
2019-03-09T03:10:33.460Z,14.90
2019-03-09T03:13:04.136Z,13.67
2019-03-09T03:15:35.947Z,14.03
2019-03-09T03:18:06.699Z,14.40
2019-03-09T03:20:37.834Z,13.43
2019-03-09T03:23:08.284Z,11.03
2019-03-09T03:25:38.728Z,12.70
2019-03-09T03:28:11.726Z,10.20
2019-03-09T03:30:42.608Z,10.30
2019-03-09T03:33:13.425Z,10.28
2019-03-09T03:35:43.927Z,9.10
2019-03-09T03:38:14.271Z,9.80
2019-03-09T03:40:46.345Z,9.87
2019-03-09T03:43:17.003Z,10.72
2019-03-09T03:45:48.064Z,10.90
2019-03-09T03:48:18.728Z,10.88
2019-03-09T03:50:49.548Z,11.43
2019-03-09T03:53:20.379Z,10.78
2019-03-09T03:55:51.141Z,10.70
2019-03-09T03:58:22.144Z,10.28
2019-03-09T04:00:52.654Z,11.00
2019-03-09T04:03:23.039Z,9.80
2019-03-09T04:05:53.864Z,9.07
2019-03-09T04:08:24.446Z,10.57
2019-03-09T04:10:55.240Z,9.57
2019-03-09T04:13:25.939Z,9.60
2019-03-09T04:15:56.488Z,7.53
2019-03-09T04:18:27.089Z,8.37
2019-03-09T04:20:57.491Z,9.13
2019-03-09T04:23:29.647Z,9.23
2019-03-09T04:26:00.453Z,9.27
2019-03-09T04:28:30.812Z,9.43
2019-03-09T04:31:02.497Z,8.17
2019-03-09T04:33:33.048Z,9.47
2019-03-09T04:36:03.454Z,8.67
2019-03-09T04:38:33.920Z,8.30
2019-03-09T04:41:04.911Z,7.70
2019-03-09T04:43:36.303Z,8.17
2019-03-09T04:46:06.795Z,7.27
2019-03-09T04:48:37.351Z,7.80
2019-03-09T04:51:07.911Z,7.63
2019-03-09T04:53:38.430Z,6.73
2019-03-09T04:56:08.962Z,7.37
2019-03-09T04:58:40.474Z,7.40
2019-03-09T05:01:10.943Z,7.63
2019-03-09T05:03:42.417Z,8.03
2019-03-09T05:06:15.621Z,8.10
2019-03-09T05:09:25.333Z,8.27
2019-03-09T05:11:55.784Z,7.80
2019-03-09T05:14:27.134Z,7.67
2019-03-09T05:16:57.556Z,8.20
2019-03-09T05:19:29.314Z,7.37
2019-03-09T05:22:00.846Z,7.30
2019-03-09T05:24:31.495Z,7.17
2019-03-09T05:27:02.077Z,6.73
2019-03-09T05:29:32.476Z,6.73
2019-03-09T05:32:04.629Z,6.73
2019-03-09T05:34:35.340Z,7.07
2019-03-09T05:37:05.792Z,7.37
2019-03-09T05:39:37.564Z,6.77
2019-03-09T05:42:10.211Z,7.20
2019-03-09T05:44:40.715Z,5.80
2019-03-09T05:47:11.129Z,5.75
2019-03-09T05:49:42.022Z,6.10
2019-03-09T05:52:37.931Z,6.37
2019-03-09T05:55:12.442Z,5.53
2019-03-09T05:57:42.958Z,6.27
2019-03-09T06:00:15.403Z,5.80
2019-03-09T06:02:45.843Z,5.90
2019-03-09T06:05:49.400Z,5.62
2019-03-09T06:08:20.105Z,5.40
2019-03-09T06:10:50.675Z,5.60
2019-03-09T06:13:21.065Z,5.27
2019-03-09T06:15:51.515Z,5.10
2019-03-09T06:18:22.175Z,5.00
2019-03-09T06:20:52.529Z,5.47
2019-03-09T06:23:22.874Z,5.87
2019-03-09T06:25:54.792Z,4.90
2019-03-09T06:28:25.604Z,4.90
2019-03-09T06:30:56.612Z,4.40
2019-03-09T06:33:34.396Z,4.40
2019-03-09T06:36:57.128Z,4.63
2019-03-09T06:39:32.991Z,4.70
2019-03-09T06:42:29.451Z,4.53
2019-03-09T06:44:59.986Z,3.97
2019-03-09T06:47:30.597Z,4.17
2019-03-09T06:50:01.101Z,4.00
2019-03-09T06:52:32.462Z,3.80
2019-03-09T06:55:03.176Z,3.53
2019-03-09T06:57:34.024Z,2.90
2019-03-09T07:00:35.989Z,3.50
2019-03-09T07:03:07.480Z,2.90
2019-03-09T07:05:37.931Z,2.83
2019-03-09T07:08:08.453Z,3.10
2019-03-09T07:10:38.798Z,3.23
2019-03-09T07:13:09.203Z,2.70
2019-03-09T07:15:42.202Z,3.20
2019-03-09T07:18:17.836Z,2.53
2019-03-09T07:20:48.514Z,2.85
2019-03-09T07:23:18.966Z,2.52
2019-03-09T07:25:49.707Z,3.20
2019-03-09T07:28:21.004Z,2.90
2019-03-09T07:30:52.005Z,2.73
2019-03-09T07:33:22.437Z,2.55
2019-03-09T07:35:54.708Z,2.17
2019-03-09T07:38:25.485Z,2.50
2019-03-09T07:40:56.310Z,2.43
2019-03-09T07:43:27.136Z,2.33
2019-03-09T07:45:58.020Z,2.40
2019-03-09T07:48:28.450Z,2.67
2019-03-09T07:50:58.935Z,2.35
2019-03-09T07:53:29.666Z,2.60
2019-03-09T07:56:03.296Z,2.70
2019-03-09T07:58:34.023Z,2.57
2019-03-09T08:01:06.815Z,2.27
2019-03-09T08:03:37.591Z,2.50
2019-03-09T08:06:08.307Z,2.07
2019-03-09T08:08:38.818Z,2.10
2019-03-09T08:11:09.240Z,2.20
2019-03-09T08:13:39.864Z,2.30
2019-03-09T08:16:10.382Z,2.30
2019-03-09T08:18:40.996Z,2.23
2019-03-09T08:21:11.656Z,2.10
2019-03-09T08:23:42.431Z,2.50
2019-03-09T08:26:14.243Z,2.90
2019-03-09T08:28:44.713Z,2.30
2019-03-09T08:31:15.290Z,2.47
2019-03-09T08:33:45.646Z,3.43
2019-03-09T08:36:16.282Z,2.17
2019-03-09T08:38:46.641Z,2.30
2019-03-09T08:41:17.294Z,2.17
2019-03-09T08:43:47.749Z,2.50
2019-03-09T08:46:18.251Z,1.98
2019-03-09T08:48:48.661Z,2.27
2019-03-09T08:51:19.086Z,1.90
2019-03-09T08:53:50.607Z,2.20
2019-03-09T08:56:21.052Z,2.47
2019-03-09T08:58:51.510Z,2.17
2019-03-09T09:01:21.978Z,4.57
2019-03-09T09:03:52.545Z,2.10
2019-03-09T09:06:23.129Z,3.97
2019-03-09T09:08:53.620Z,2.70
2019-03-09T09:11:25.386Z,2.40
2019-03-09T09:13:55.902Z,1.90
2019-03-09T09:16:26.648Z,2.00
2019-03-09T09:18:58.365Z,1.77
2019-03-09T09:21:28.976Z,2.00
2019-03-09T09:23:59.535Z,1.97
2019-03-09T09:26:30.186Z,2.03
2019-03-09T09:29:00.650Z,1.87
2019-03-09T09:31:31.384Z,1.53
2019-03-09T09:34:02.037Z,2.10
2019-03-09T09:36:32.885Z,2.00
2019-03-09T09:39:04.037Z,1.83
2019-03-09T09:41:36.305Z,2.20
2019-03-09T09:44:06.840Z,2.00
2019-03-09T09:46:37.398Z,1.70
2019-03-09T09:49:07.886Z,2.20
2019-03-09T09:51:38.480Z,2.03
2019-03-09T09:54:09.143Z,2.07
2019-03-09T09:56:39.668Z,1.97
2019-03-09T09:59:10.342Z,1.70
2019-03-09T10:01:40.902Z,1.67
2019-03-09T10:04:11.278Z,1.60
2019-03-09T10:06:41.773Z,1.63
2019-03-09T10:09:12.507Z,1.80
2019-03-09T10:11:43.074Z,1.90
2019-03-09T10:14:13.438Z,1.90
2019-03-09T10:16:44.050Z,1.83
2019-03-09T10:19:14.427Z,1.80
2019-03-09T10:21:45.054Z,2.00
2019-03-09T10:24:16.749Z,1.57
2019-03-09T10:26:47.862Z,1.70
2019-03-09T10:29:18.440Z,1.80
2019-03-09T10:31:49.361Z,1.50
2019-03-09T10:34:19.732Z,1.70
2019-03-09T10:36:50.286Z,1.97
2019-03-09T10:39:20.740Z,1.90
2019-03-09T10:41:51.099Z,1.50
2019-03-09T10:44:21.807Z,1.82
2019-03-09T10:46:52.164Z,1.87
2019-03-09T10:49:22.675Z,1.70
2019-03-09T10:51:53.144Z,1.90
2019-03-09T10:54:23.564Z,1.70
2019-03-09T10:56:53.992Z,1.60
2019-03-09T10:59:24.449Z,1.67
2019-03-09T11:01:54.822Z,1.60
2019-03-09T11:04:27.805Z,2.10
2019-03-09T11:06:57.703Z,1.60
2019-03-09T11:09:28.094Z,1.83
2019-03-09T11:11:58.593Z,1.80
2019-03-09T11:14:29.010Z,1.90
2019-03-09T11:16:59.528Z,2.00
2019-03-09T11:19:29.944Z,1.93
2019-03-09T11:22:00.499Z,1.97
2019-03-09T11:24:31.808Z,2.10
2019-03-09T11:27:02.208Z,2.30
2019-03-09T11:29:32.545Z,1.72
2019-03-09T11:32:02.966Z,2.30
2019-03-09T11:34:33.350Z,1.70
2019-03-09T11:37:03.875Z,1.83
2019-03-09T11:39:34.189Z,1.90
2019-03-09T11:42:04.974Z,1.80
2019-03-09T11:44:35.442Z,1.50
2019-03-09T11:47:07.435Z,2.20
2019-03-09T11:49:38.741Z,1.97
2019-03-09T11:52:16.330Z,2.10
2019-03-09T11:54:41.434Z,1.90
2019-03-09T11:57:12.215Z,1.80
2019-03-09T11:59:42.532Z,2.02
2019-03-09T12:02:12.941Z,2.10
2019-03-09T12:04:47.088Z,2.03
2019-03-09T12:07:17.803Z,2.00
2019-03-09T12:09:48.307Z,2.10
2019-03-09T12:12:18.757Z,2.20
2019-03-09T12:14:49.354Z,1.93
2019-03-09T12:17:19.752Z,2.00
2019-03-09T12:19:50.152Z,2.47
2019-03-09T12:22:20.579Z,1.67
2019-03-09T12:24:53.989Z,2.57
2019-03-09T12:27:24.558Z,1.77
2019-03-09T12:29:55.265Z,1.70
2019-03-09T12:32:25.785Z,1.70
2019-03-09T12:34:56.572Z,1.67
2019-03-09T12:37:27.065Z,1.87
2019-03-09T12:39:57.534Z,2.17
2019-03-09T12:42:28.076Z,2.20
2019-03-09T12:44:58.807Z,2.27
2019-03-09T12:47:29.192Z,2.70
2019-03-09T12:49:59.795Z,2.43
2019-03-09T12:52:30.432Z,2.57
2019-03-09T12:55:00.881Z,2.03
2019-03-09T12:57:32.666Z,2.10
2019-03-09T13:00:03.291Z,2.40
2019-03-09T13:02:33.963Z,1.83
2019-03-09T13:05:04.455Z,2.53
2019-03-09T13:07:34.854Z,2.10
2019-03-09T13:10:06.217Z,2.23
2019-03-09T13:12:38.998Z,2.80
2019-03-09T13:15:09.541Z,2.50
2019-03-09T13:17:41.033Z,2.63
2019-03-09T13:20:11.798Z,2.80
2019-03-09T13:22:42.236Z,2.60
2019-03-09T13:25:12.838Z,2.50
2019-03-09T13:27:43.578Z,2.70
2019-03-09T13:30:16.568Z,2.55
2019-03-09T13:32:47.322Z,2.73
2019-03-09T13:35:17.699Z,2.60
2019-03-09T13:37:48.733Z,2.73
2019-03-09T13:40:19.145Z,2.75
2019-03-09T13:42:49.553Z,2.43
2019-03-09T13:45:19.872Z,2.63
2019-03-09T13:47:50.260Z,2.90
2019-03-09T13:50:20.649Z,2.70
2019-03-09T13:52:52.483Z,2.57
2019-03-09T13:55:23.233Z,2.63
2019-03-09T13:57:55.496Z,2.90
2019-03-09T14:00:26.124Z,3.07
2019-03-09T14:02:56.868Z,2.80
2019-03-09T14:05:27.713Z,3.00
2019-03-09T14:07:59.853Z,2.80
2019-03-09T14:10:30.621Z,2.93
2019-03-09T14:13:01.021Z,3.20
2019-03-09T14:15:31.700Z,3.13
2019-03-09T14:18:02.308Z,3.40
2019-03-09T14:20:32.689Z,3.33
2019-03-09T14:23:03.087Z,3.77
2019-03-09T14:25:33.690Z,3.40
2019-03-09T14:28:04.434Z,3.37
2019-03-09T14:30:35.249Z,3.00
2019-03-09T14:33:05.873Z,3.05
2019-03-09T14:35:36.273Z,3.40
2019-03-09T14:38:06.792Z,3.37
2019-03-09T14:40:37.241Z,2.80
2019-03-09T14:43:07.716Z,3.10
2019-03-09T14:45:38.551Z,3.27
2019-03-09T14:48:09.233Z,3.10
2019-03-09T14:50:39.813Z,2.93
2019-03-09T14:53:10.278Z,3.50
2019-03-09T14:55:40.738Z,3.17
2019-03-09T14:58:11.163Z,3.00
2019-03-09T15:00:41.519Z,3.60
2019-03-09T15:03:11.947Z,3.60
2019-03-09T15:05:42.312Z,3.33
2019-03-09T15:08:14.944Z,3.47
2019-03-09T15:10:45.411Z,3.93
2019-03-09T15:13:15.911Z,3.85
2019-03-09T15:15:46.375Z,3.80
2019-03-09T15:18:16.695Z,3.40
2019-03-09T15:20:47.180Z,3.37
2019-03-09T15:23:17.523Z,3.65
2019-03-09T15:25:47.967Z,3.60
2019-03-09T15:28:18.437Z,3.73
2019-03-09T15:30:48.831Z,3.67
2019-03-09T15:33:21.702Z,3.70
2019-03-09T15:35:53.891Z,3.57
2019-03-09T15:38:24.286Z,3.70
2019-03-09T15:40:54.820Z,3.47
2019-03-09T15:43:25.443Z,3.70
2019-03-09T15:45:55.963Z,3.97
2019-03-09T15:48:26.476Z,3.80
2019-03-09T15:50:57.479Z,4.03
2019-03-09T15:53:27.819Z,3.87
2019-03-09T15:55:58.401Z,3.90
2019-03-09T15:58:31.009Z,4.40
2019-03-09T16:01:01.540Z,3.70
2019-03-09T16:03:32.266Z,4.30
2019-03-09T16:06:02.776Z,4.40
2019-03-09T16:08:33.183Z,3.90
2019-03-09T16:11:03.868Z,4.20
2019-03-09T16:13:34.360Z,4.40
2019-03-09T16:16:05.001Z,4.37
2019-03-09T16:18:35.388Z,4.47
2019-03-09T16:21:05.752Z,4.40
2019-03-09T16:23:36.116Z,4.90
2019-03-09T16:26:06.599Z,4.07
2019-03-09T16:28:37.091Z,4.10
2019-03-09T16:31:07.474Z,4.63
2019-03-09T16:33:37.869Z,4.40
2019-03-09T16:36:08.350Z,4.57
2019-03-09T16:38:38.908Z,3.97
2019-03-09T16:41:09.728Z,4.60
2019-03-09T16:43:40.542Z,4.67
2019-03-09T16:46:11.408Z,4.17
2019-03-09T16:48:41.897Z,4.50
2019-03-09T16:51:12.550Z,4.70
2019-03-09T16:53:43.464Z,4.73
2019-03-09T16:56:14.002Z,4.53
2019-03-09T16:58:46.622Z,4.73
2019-03-09T17:01:17.145Z,5.05
2019-03-09T17:03:47.663Z,4.23
2019-03-09T17:06:18.368Z,4.75
2019-03-09T17:08:49.195Z,4.90
2019-03-09T17:11:20.124Z,4.77
2019-03-09T17:13:50.834Z,4.47
2019-03-09T17:16:21.288Z,4.80
2019-03-09T17:18:52.200Z,4.80
2019-03-09T17:21:22.974Z,4.70
2019-03-09T17:23:53.732Z,5.27
2019-03-09T17:26:24.478Z,5.37
2019-03-09T17:28:54.909Z,5.03
2019-03-09T17:31:25.611Z,5.63
2019-03-09T17:33:56.295Z,5.83
2019-03-09T17:36:27.484Z,5.40
2019-03-09T17:38:58.468Z,5.43
2019-03-09T17:41:29.486Z,6.00
2019-03-09T17:44:01.774Z,5.78
2019-03-09T17:46:33.331Z,5.97
2019-03-09T17:49:03.843Z,5.23
2019-03-09T17:51:34.722Z,5.40
2019-03-09T17:54:07.912Z,5.40
2019-03-09T17:56:38.450Z,4.97
2019-03-09T17:59:09.148Z,5.30
2019-03-09T18:01:39.671Z,4.70
2019-03-09T18:04:10.647Z,4.33
2019-03-09T18:06:41.322Z,4.37
2019-03-09T18:09:13.257Z,4.30
2019-03-09T18:11:44.019Z,4.50
2019-03-09T18:14:14.907Z,4.23
2019-03-09T18:16:52.458Z,4.50
2019-03-09T18:19:17.662Z,4.03
2019-03-09T18:21:48.870Z,3.93
2019-03-09T18:24:19.522Z,3.70
2019-03-09T18:26:50.722Z,4.07
2019-03-09T18:29:21.055Z,4.15
2019-03-09T18:31:51.872Z,4.57
2019-03-09T18:34:22.485Z,4.43
2019-03-09T18:36:53.082Z,4.27
2019-03-09T18:39:23.746Z,4.20
2019-03-09T18:41:54.588Z,4.43
2019-03-09T18:44:25.437Z,4.50
2019-03-09T18:46:56.167Z,4.03
2019-03-09T18:49:26.839Z,4.33
2019-03-09T18:51:57.653Z,3.80
2019-03-09T18:54:29.634Z,3.83
2019-03-09T18:57:00.640Z,4.17
2019-03-09T18:59:31.248Z,3.90
2019-03-09T19:02:02.107Z,3.30
2019-03-09T19:04:33.183Z,4.40
2019-03-09T19:07:03.841Z,4.17
2019-03-09T19:09:34.419Z,4.57
2019-03-09T19:12:04.883Z,3.62
2019-03-09T19:14:35.801Z,3.80
2019-03-09T19:17:06.576Z,3.63
2019-03-09T19:19:37.178Z,3.77
2019-03-09T19:22:07.722Z,3.73
2019-03-09T19:24:38.658Z,4.00
2019-03-09T19:27:10.632Z,4.10
2019-03-09T19:29:41.330Z,4.57
2019-03-09T19:32:12.369Z,4.03
2019-03-09T19:34:42.801Z,4.37
2019-03-09T19:37:13.330Z,4.75
2019-03-09T19:39:43.933Z,4.80
2019-03-09T19:42:14.851Z,5.20
2019-03-09T19:44:45.472Z,4.93
2019-03-09T19:47:16.456Z,5.63
2019-03-09T19:49:47.304Z,5.27
2019-03-09T19:52:18.123Z,5.10
2019-03-09T19:54:48.783Z,5.23
2019-03-09T19:57:19.164Z,4.53
2019-03-09T19:59:49.529Z,5.65
2019-03-09T20:02:20.271Z,5.78
2019-03-09T20:04:50.731Z,5.53
2019-03-09T20:07:21.578Z,5.97
2019-03-09T20:09:52.541Z,5.60
2019-03-09T20:12:23.387Z,5.63
2019-03-09T20:14:53.998Z,5.60
2019-03-09T20:17:25.671Z,5.77
2019-03-09T20:19:56.420Z,5.50
2019-03-09T20:22:27.076Z,5.67
2019-03-09T20:24:59.059Z,5.87
2019-03-09T20:27:30.085Z,5.63
2019-03-09T20:30:00.742Z,6.13
2019-03-09T20:32:31.700Z,5.90
2019-03-09T20:35:02.485Z,5.80
2019-03-09T20:37:33.172Z,5.93
2019-03-09T20:40:04.409Z,6.27
2019-03-09T20:42:36.004Z,5.97
2019-03-09T20:45:08.575Z,6.43
2019-03-09T20:47:39.029Z,6.47
2019-03-09T20:50:11.091Z,6.27
2019-03-09T20:52:41.762Z,5.93
2019-03-09T20:55:12.360Z,6.03
2019-03-09T20:57:44.107Z,5.93
2019-03-09T21:00:16.369Z,6.50
2019-03-09T21:02:47.043Z,6.20
2019-03-09T21:05:18.066Z,6.50
2019-03-09T21:07:48.759Z,7.57
2019-03-09T21:10:19.396Z,7.37
2019-03-09T21:12:57.430Z,7.13
2019-03-09T21:15:27.910Z,6.67
2019-03-09T21:17:58.650Z,5.97
2019-03-09T21:20:29.086Z,6.53
2019-03-09T21:22:59.893Z,6.13
2019-03-09T21:25:30.272Z,6.17
2019-03-09T21:28:01.022Z,6.77
2019-03-09T21:30:31.475Z,6.13
2019-03-09T21:33:01.896Z,6.67
2019-03-09T21:35:33.157Z,5.83
2019-03-09T21:38:03.539Z,5.30
2019-03-09T21:40:34.061Z,5.50
2019-03-09T21:43:04.442Z,5.83
2019-03-09T21:45:34.881Z,5.07
2019-03-09T21:48:05.865Z,4.58
2019-03-09T21:50:36.265Z,4.17
2019-03-09T21:53:06.755Z,4.20
2019-03-09T21:55:37.500Z,4.23
2019-03-09T21:58:08.053Z,4.37
2019-03-09T22:00:38.504Z,4.53
2019-03-09T22:03:09.035Z,4.73
2019-03-09T22:05:39.450Z,3.80
2019-03-09T22:08:09.998Z,3.73
2019-03-09T22:10:40.424Z,3.93
2019-03-09T22:13:11.836Z,3.30
2019-03-09T22:15:43.545Z,3.37
2019-03-09T22:18:14.941Z,3.93
2019-03-09T22:20:45.414Z,3.50
2019-03-09T22:23:15.743Z,4.03
2019-03-09T22:25:46.154Z,3.67
2019-03-09T22:28:18.368Z,3.22
2019-03-09T22:30:48.964Z,2.47
2019-03-09T22:33:19.409Z,2.60
2019-03-09T22:35:50.201Z,2.47
2019-03-09T22:38:20.617Z,2.27
2019-03-09T22:40:50.929Z,2.30
2019-03-09T22:43:21.353Z,2.33
2019-03-09T22:45:51.755Z,2.42
2019-03-09T22:48:23.184Z,2.37
2019-03-09T22:50:53.702Z,2.13
2019-03-09T22:53:24.092Z,2.07
2019-03-09T22:55:54.705Z,2.20
2019-03-09T22:58:25.213Z,2.37
2019-03-09T23:00:55.813Z,1.87
2019-03-09T23:03:26.274Z,2.50
2019-03-09T23:05:56.763Z,2.20
2019-03-09T23:08:27.382Z,2.37
2019-03-09T23:10:57.836Z,2.40
2019-03-09T23:13:28.253Z,2.73
2019-03-09T23:15:58.733Z,2.33
2019-03-09T23:18:29.246Z,3.10
2019-03-09T23:21:00.069Z,3.07
2019-03-09T23:23:30.542Z,3.70
2019-03-09T23:26:01.103Z,3.70
2019-03-09T23:28:46.235Z,4.70
2019-03-09T23:31:17.039Z,4.73
2019-03-09T23:33:47.620Z,5.93
2019-03-09T23:36:18.223Z,3.87
2019-03-09T23:38:48.958Z,3.30
2019-03-09T23:41:19.499Z,2.30
2019-03-09T23:43:50.152Z,2.30
2019-03-09T23:46:20.632Z,2.33
2019-03-09T23:48:51.411Z,2.47
2019-03-09T23:51:22.141Z,2.33
2019-03-09T23:53:53.844Z,1.93
2019-03-09T23:56:26.741Z,2.07
2019-03-09T23:58:59.277Z,2.10
